Terminal Aerodrome Forecast
Issued by NWS

Home | Current Version | Previous Version | Text Only | Print | Product List | Glossary On
Versions: 1 2 3 4 5 6 7 8 9 10 11 12 13 14 15 16 17 18 19 20 21 22 23 24
474
FTUS43 KLSX 060538
TAFCPS
TAF
KCPS 060538Z 0606/0706 VRB03KT P6SM VCSH OVC015
     FM061100 33004KT 4SM BR OVC015
     FM061500 32010KT P6SM OVC015
     FM061800 31012G20KT P6SM BKN020
     FM062000 31012G19KT P6SM SCT035
     FM070000 30008KT P6SM SCT200=

USA.gov is the U.S. government's official web portal to all federal, state and local government web resources and services.